sensor_id;sensor_type;location;lat;lon;timestamp;temperature;humidity
39847;DHT22;25517;52.422;10.782;2023-04-12T00:00:11;3.80;99.90
39847;DHT22;25517;52.422;10.782;2023-04-12T00:02:38;3.70;99.90
39847;DHT22;25517;52.422;10.782;2023-04-12T00:05:04;3.70;99.90
39847;DHT22;25517;52.422;10.782;2023-04-12T00:07:29;3.70;99.90
39847;DHT22;25517;52.422;10.782;2023-04-12T00:09:55;3.70;99.90
39847;DHT22;25517;52.422;10.782;2023-04-12T00:12:21;3.60;99.90
39847;DHT22;25517;52.422;10.782;2023-04-12T00:14:46;3.60;99.90
39847;DHT22;25517;52.422;10.782;2023-04-12T00:17:12;3.60;99.90
39847;DHT22;25517;52.422;10.782;2023-04-12T00:19:38;3.60;99.90
39847;DHT22;25517;52.422;10.782;2023-04-12T00:22:08;3.60;99.90
39847;DHT22;25517;52.422;10.782;2023-04-12T00:24:34;3.60;99.90
39847;DHT22;25517;52.422;10.782;2023-04-12T00:26:59;3.60;99.90
39847;DHT22;25517;52.422;10.782;2023-04-12T00:29:26;3.60;99.90
39847;DHT22;25517;52.422;10.782;2023-04-12T00:31:52;3.60;99.90
39847;DHT22;25517;52.422;10.782;2023-04-12T00:34:17;3.60;99.90
39847;DHT22;25517;52.422;10.782;2023-04-12T00:36:43;3.60;99.90
39847;DHT22;25517;52.422;10.782;2023-04-12T00:39:08;3.60;99.90
39847;DHT22;25517;52.422;10.782;2023-04-12T00:41:36;3.70;99.90
39847;DHT22;25517;52.422;10.782;2023-04-12T00:44:01;3.70;99.90
39847;DHT22;25517;52.422;10.782;2023-04-12T00:46:27;3.70;99.90
39847;DHT22;25517;52.422;10.782;2023-04-12T00:48:54;3.70;99.90
39847;DHT22;25517;52.422;10.782;2023-04-12T00:51:21;3.70;99.90
39847;DHT22;25517;52.422;10.782;2023-04-12T00:53:47;3.80;99.90
39847;DHT22;25517;52.422;10.782;2023-04-12T00:56:13;3.80;99.90
39847;DHT22;25517;52.422;10.782;2023-04-12T00:58:38;3.90;99.90
39847;DHT22;25517;52.422;10.782;2023-04-12T01:01:04;3.90;99.90
39847;DHT22;25517;52.422;10.782;2023-04-12T01:03:30;3.90;99.90
39847;DHT22;25517;52.422;10.782;2023-04-12T01:06:11;3.90;99.90
39847;DHT22;25517;52.422;10.782;2023-04-12T01:11:28;4.00;99.90
39847;DHT22;25517;52.422;10.782;2023-04-12T01:14:09;4.00;99.90
39847;DHT22;25517;52.422;10.782;2023-04-12T01:16:50;4.10;99.90
39847;DHT22;25517;52.422;10.782;2023-04-12T01:25:00;4.20;99.90
39847;DHT22;25517;52.422;10.782;2023-04-12T01:30:07;4.40;99.90
39847;DHT22;25517;52.422;10.782;2023-04-12T01:32:34;4.50;99.90
39847;DHT22;25517;52.422;10.782;2023-04-12T01:35:02;4.50;99.90
39847;DHT22;25517;52.422;10.782;2023-04-12T01:37:28;4.60;99.90
39847;DHT22;25517;52.422;10.782;2023-04-12T01:39:55;4.60;99.90
39847;DHT22;25517;52.422;10.782;2023-04-12T01:42:20;4.80;99.90
39847;DHT22;25517;52.422;10.782;2023-04-12T01:44:46;4.80;99.90
39847;DHT22;25517;52.422;10.782;2023-04-12T01:47:12;4.90;99.90
39847;DHT22;25517;52.422;10.782;2023-04-12T01:49:48;4.90;99.90
39847;DHT22;25517;52.422;10.782;2023-04-12T01:52:19;4.90;99.90
39847;DHT22;25517;52.422;10.782;2023-04-12T01:54:48;4.90;99.90
39847;DHT22;25517;52.422;10.782;2023-04-12T01:57:16;5.00;99.90
39847;DHT22;25517;52.422;10.782;2023-04-12T01:59:43;5.00;99.90
39847;DHT22;25517;52.422;10.782;2023-04-12T02:02:11;5.10;99.90
39847;DHT22;25517;52.422;10.782;2023-04-12T02:04:37;5.20;99.90
39847;DHT22;25517;52.422;10.782;2023-04-12T02:07:03;5.20;99.90
39847;DHT22;25517;52.422;10.782;2023-04-12T02:09:29;5.20;99.90
39847;DHT22;25517;52.422;10.782;2023-04-12T02:11:54;5.20;99.90
39847;DHT22;25517;52.422;10.782;2023-04-12T02:14:21;5.20;99.90
39847;DHT22;25517;52.422;10.782;2023-04-12T02:16:46;5.20;99.90
39847;DHT22;25517;52.422;10.782;2023-04-12T02:19:12;5.30;99.90
39847;DHT22;25517;52.422;10.782;2023-04-12T02:21:44;5.30;99.90
39847;DHT22;25517;52.422;10.782;2023-04-12T02:24:11;5.30;99.90
39847;DHT22;25517;52.422;10.782;2023-04-12T02:26:37;5.40;99.90
39847;DHT22;25517;52.422;10.782;2023-04-12T02:29:03;5.40;99.90
39847;DHT22;25517;52.422;10.782;2023-04-12T02:31:32;5.40;99.90
39847;DHT22;25517;52.422;10.782;2023-04-12T02:33:57;5.40;99.90
39847;DHT22;25517;52.422;10.782;2023-04-12T02:36:23;5.40;99.90
39847;DHT22;25517;52.422;10.782;2023-04-12T02:38:49;5.40;99.90
39847;DHT22;25517;52.422;10.782;2023-04-12T02:41:19;5.50;99.90
39847;DHT22;25517;52.422;10.782;2023-04-12T02:43:45;5.50;99.90
39847;DHT22;25517;52.422;10.782;2023-04-12T02:46:17;5.50;99.90
39847;DHT22;25517;52.422;10.782;2023-04-12T02:48:44;5.50;99.90
39847;DHT22;25517;52.422;10.782;2023-04-12T02:51:10;5.40;99.90
39847;DHT22;25517;52.422;10.782;2023-04-12T02:53:35;5.50;99.90
39847;DHT22;25517;52.422;10.782;2023-04-12T02:56:03;5.50;99.90
39847;DHT22;25517;52.422;10.782;2023-04-12T02:58:29;5.50;99.90
39847;DHT22;25517;52.422;10.782;2023-04-12T03:00:55;5.50;99.90
39847;DHT22;25517;52.422;10.782;2023-04-12T03:03:22;5.50;99.90
39847;DHT22;25517;52.422;10.782;2023-04-12T03:05:48;5.50;99.90
39847;DHT22;25517;52.422;10.782;2023-04-12T03:08:14;5.50;99.90
39847;DHT22;25517;52.422;10.782;2023-04-12T03:10:39;5.50;99.90
39847;DHT22;25517;52.422;10.782;2023-04-12T03:13:05;5.50;99.90
39847;DHT22;25517;52.422;10.782;2023-04-12T03:15:30;5.50;99.90
39847;DHT22;25517;52.422;10.782;2023-04-12T03:17:56;5.50;99.90
39847;DHT22;25517;52.422;10.782;2023-04-12T03:20:21;5.40;99.90
39847;DHT22;25517;52.422;10.782;2023-04-12T03:22:49;5.40;99.90
39847;DHT22;25517;52.422;10.782;2023-04-12T03:25:15;5.40;99.90
39847;DHT22;25517;52.422;10.782;2023-04-12T03:27:44;5.30;99.90
39847;DHT22;25517;52.422;10.782;2023-04-12T03:30:10;5.30;99.90
39847;DHT22;25517;52.422;10.782;2023-04-12T03:32:36;5.30;99.90
39847;DHT22;25517;52.422;10.782;2023-04-12T03:35:02;5.30;99.90
39847;DHT22;25517;52.422;10.782;2023-04-12T03:37:28;5.30;99.90
39847;DHT22;25517;52.422;10.782;2023-04-12T03:39:53;5.30;99.90
39847;DHT22;25517;52.422;10.782;2023-04-12T03:42:19;5.30;99.90
39847;DHT22;25517;52.422;10.782;2023-04-12T03:44:44;5.40;99.90
39847;DHT22;25517;52.422;10.782;2023-04-12T03:47:10;5.40;99.90
39847;DHT22;25517;52.422;10.782;2023-04-12T03:49:36;5.40;99.90
39847;DHT22;25517;52.422;10.782;2023-04-12T03:52:05;5.40;99.90
39847;DHT22;25517;52.422;10.782;2023-04-12T03:54:32;5.40;99.90
39847;DHT22;25517;52.422;10.782;2023-04-12T03:56:57;5.40;99.90
39847;DHT22;25517;52.422;10.782;2023-04-12T03:59:23;5.40;99.90
39847;DHT22;25517;52.422;10.782;2023-04-12T04:01:48;5.40;99.90
39847;DHT22;25517;52.422;10.782;2023-04-12T04:04:14;5.40;99.90
39847;DHT22;25517;52.422;10.782;2023-04-12T04:06:40;5.40;99.90
39847;DHT22;25517;52.422;10.782;2023-04-12T04:09:06;5.40;99.90
39847;DHT22;25517;52.422;10.782;2023-04-12T04:11:31;5.50;99.90
39847;DHT22;25517;52.422;10.782;2023-04-12T04:13:57;5.50;99.90
39847;DHT22;25517;52.422;10.782;2023-04-12T04:16:23;5.50;99.90
39847;DHT22;25517;52.422;10.782;2023-04-12T04:18:48;5.50;99.90
39847;DHT22;25517;52.422;10.782;2023-04-12T04:21:14;5.50;99.90
39847;DHT22;25517;52.422;10.782;2023-04-12T04:23:39;5.50;99.90
39847;DHT22;25517;52.422;10.782;2023-04-12T04:26:09;5.50;99.90
39847;DHT22;25517;52.422;10.782;2023-04-12T04:28:40;5.50;99.90
39847;DHT22;25517;52.422;10.782;2023-04-12T04:31:10;5.60;99.90
39847;DHT22;25517;52.422;10.782;2023-04-12T04:33:36;5.60;99.90
39847;DHT22;25517;52.422;10.782;2023-04-12T04:36:03;5.70;99.90
39847;DHT22;25517;52.422;10.782;2023-04-12T04:38:29;5.70;99.90
39847;DHT22;25517;52.422;10.782;2023-04-12T04:40:57;5.70;99.90
39847;DHT22;25517;52.422;10.782;2023-04-12T04:43:24;5.70;99.90
39847;DHT22;25517;52.422;10.782;2023-04-12T04:45:51;5.70;99.90
39847;DHT22;25517;52.422;10.782;2023-04-12T04:48:19;5.70;99.90
39847;DHT22;25517;52.422;10.782;2023-04-12T04:50:45;5.70;99.90
39847;DHT22;25517;52.422;10.782;2023-04-12T04:53:11;5.60;99.90
39847;DHT22;25517;52.422;10.782;2023-04-12T04:55:37;5.70;99.90
39847;DHT22;25517;52.422;10.782;2023-04-12T04:58:03;5.70;99.90
39847;DHT22;25517;52.422;10.782;2023-04-12T05:00:30;5.70;99.90
39847;DHT22;25517;52.422;10.782;2023-04-12T05:02:55;5.70;99.90
39847;DHT22;25517;52.422;10.782;2023-04-12T05:05:21;5.70;99.90
39847;DHT22;25517;52.422;10.782;2023-04-12T05:07:47;5.70;99.90
39847;DHT22;25517;52.422;10.782;2023-04-12T05:10:13;5.70;99.90
39847;DHT22;25517;52.422;10.782;2023-04-12T05:12:39;5.70;99.90
39847;DHT22;25517;52.422;10.782;2023-04-12T05:15:05;5.80;99.90
39847;DHT22;25517;52.422;10.782;2023-04-12T05:17:31;5.70;99.90
39847;DHT22;25517;52.422;10.782;2023-04-12T05:19:59;5.80;99.90
39847;DHT22;25517;52.422;10.782;2023-04-12T05:22:24;5.70;99.90
39847;DHT22;25517;52.422;10.782;2023-04-12T05:24:50;5.70;99.90
39847;DHT22;25517;52.422;10.782;2023-04-12T05:27:16;5.70;99.90
39847;DHT22;25517;52.422;10.782;2023-04-12T05:29:42;5.70;99.90
39847;DHT22;25517;52.422;10.782;2023-04-12T05:32:08;5.70;99.90
39847;DHT22;25517;52.422;10.782;2023-04-12T05:34:33;5.70;99.90
39847;DHT22;25517;52.422;10.782;2023-04-12T05:36:59;5.70;99.90
39847;DHT22;25517;52.422;10.782;2023-04-12T05:39:25;5.70;99.90
39847;DHT22;25517;52.422;10.782;2023-04-12T05:41:51;5.70;99.90
39847;DHT22;25517;52.422;10.782;2023-04-12T05:44:17;5.60;99.90
39847;DHT22;25517;52.422;10.782;2023-04-12T05:46:43;5.60;99.90
39847;DHT22;25517;52.422;10.782;2023-04-12T05:49:08;5.60;99.90
39847;DHT22;25517;52.422;10.782;2023-04-12T05:51:34;5.60;99.90
39847;DHT22;25517;52.422;10.782;2023-04-12T05:53:59;5.60;99.90
39847;DHT22;25517;52.422;10.782;2023-04-12T05:56:25;5.70;99.90
39847;DHT22;25517;52.422;10.782;2023-04-12T05:58:51;5.70;99.90
39847;DHT22;25517;52.422;10.782;2023-04-12T06:01:16;5.80;99.90
39847;DHT22;25517;52.422;10.782;2023-04-12T06:03:44;5.90;99.90
39847;DHT22;25517;52.422;10.782;2023-04-12T06:06:10;5.90;99.90
39847;DHT22;25517;52.422;10.782;2023-04-12T06:08:36;5.90;99.90
39847;DHT22;25517;52.422;10.782;2023-04-12T06:11:03;6.00;99.90
39847;DHT22;25517;52.422;10.782;2023-04-12T06:13:29;6.10;99.90
39847;DHT22;25517;52.422;10.782;2023-04-12T06:15:55;6.10;99.90
39847;DHT22;25517;52.422;10.782;2023-04-12T06:18:20;6.20;99.90
39847;DHT22;25517;52.422;10.782;2023-04-12T06:20:46;6.20;99.90
39847;DHT22;25517;52.422;10.782;2023-04-12T06:23:11;6.40;99.90
39847;DHT22;25517;52.422;10.782;2023-04-12T06:25:37;6.60;99.90
39847;DHT22;25517;52.422;10.782;2023-04-12T06:28:03;6.80;99.90
39847;DHT22;25517;52.422;10.782;2023-04-12T06:30:28;7.00;99.90
39847;DHT22;25517;52.422;10.782;2023-04-12T06:32:54;7.10;99.90
39847;DHT22;25517;52.422;10.782;2023-04-12T06:35:20;7.30;99.90
39847;DHT22;25517;52.422;10.782;2023-04-12T06:37:47;7.40;99.90
39847;DHT22;25517;52.422;10.782;2023-04-12T06:40:12;7.60;99.90
39847;DHT22;25517;52.422;10.782;2023-04-12T06:42:38;7.80;99.90
39847;DHT22;25517;52.422;10.782;2023-04-12T06:45:04;8.00;99.90
39847;DHT22;25517;52.422;10.782;2023-04-12T06:47:31;8.20;99.90
39847;DHT22;25517;52.422;10.782;2023-04-12T06:49:56;8.40;99.90
39847;DHT22;25517;52.422;10.782;2023-04-12T06:52:26;8.60;99.90
39847;DHT22;25517;52.422;10.782;2023-04-12T06:54:52;8.90;99.90
39847;DHT22;25517;52.422;10.782;2023-04-12T06:57:17;9.10;99.90
39847;DHT22;25517;52.422;10.782;2023-04-12T06:59:43;9.30;99.90
39847;DHT22;25517;52.422;10.782;2023-04-12T07:02:09;9.30;99.90
39847;DHT22;25517;52.422;10.782;2023-04-12T07:04:34;9.40;99.90
39847;DHT22;25517;52.422;10.782;2023-04-12T07:07:00;9.40;99.90
39847;DHT22;25517;52.422;10.782;2023-04-12T07:09:26;9.50;99.70
39847;DHT22;25517;52.422;10.782;2023-04-12T07:11:51;9.60;99.60
39847;DHT22;25517;52.422;10.782;2023-04-12T07:14:17;9.60;99.70
39847;DHT22;25517;52.422;10.782;2023-04-12T07:16:43;9.90;99.60
39847;DHT22;25517;52.422;10.782;2023-04-12T07:19:08;10.00;99.30
39847;DHT22;25517;52.422;10.782;2023-04-12T07:21:34;10.00;99.10
39847;DHT22;25517;52.422;10.782;2023-04-12T07:23:59;10.10;98.90
39847;DHT22;25517;52.422;10.782;2023-04-12T07:26:26;10.30;98.80
39847;DHT22;25517;52.422;10.782;2023-04-12T07:28:51;10.40;98.60
39847;DHT22;25517;52.422;10.782;2023-04-12T07:31:17;10.30;99.00
39847;DHT22;25517;52.422;10.782;2023-04-12T07:33:43;10.40;98.90
39847;DHT22;25517;52.422;10.782;2023-04-12T07:36:09;10.60;98.00
39847;DHT22;25517;52.422;10.782;2023-04-12T07:38:35;10.70;97.90
39847;DHT22;25517;52.422;10.782;2023-04-12T07:41:00;10.70;97.80
39847;DHT22;25517;52.422;10.782;2023-04-12T07:43:26;11.00;97.90
39847;DHT22;25517;52.422;10.782;2023-04-12T07:45:53;11.10;97.10
39847;DHT22;25517;52.422;10.782;2023-04-12T07:48:20;11.20;97.50
39847;DHT22;25517;52.422;10.782;2023-04-12T07:50:46;11.20;97.40
39847;DHT22;25517;52.422;10.782;2023-04-12T07:53:23;11.20;97.70
39847;DHT22;25517;52.422;10.782;2023-04-12T07:55:49;11.20;97.60
39847;DHT22;25517;52.422;10.782;2023-04-12T07:58:16;11.10;98.10
39847;DHT22;25517;52.422;10.782;2023-04-12T08:00:42;11.10;98.40
39847;DHT22;25517;52.422;10.782;2023-04-12T08:03:09;10.90;98.00
39847;DHT22;25517;52.422;10.782;2023-04-12T08:05:35;10.70;97.60
39847;DHT22;25517;52.422;10.782;2023-04-12T08:08:01;10.50;98.50
39847;DHT22;25517;52.422;10.782;2023-04-12T08:10:28;10.60;98.80
39847;DHT22;25517;52.422;10.782;2023-04-12T08:12:53;10.80;99.00
39847;DHT22;25517;52.422;10.782;2023-04-12T08:15:19;10.80;98.70
39847;DHT22;25517;52.422;10.782;2023-04-12T08:17:45;11.00;98.60
39847;DHT22;25517;52.422;10.782;2023-04-12T08:20:11;11.10;98.20
39847;DHT22;25517;52.422;10.782;2023-04-12T08:22:37;11.10;98.10
39847;DHT22;25517;52.422;10.782;2023-04-12T08:25:02;11.00;98.80
39847;DHT22;25517;52.422;10.782;2023-04-12T08:27:28;11.10;98.30
39847;DHT22;25517;52.422;10.782;2023-04-12T08:29:54;11.10;98.50
39847;DHT22;25517;52.422;10.782;2023-04-12T08:32:19;11.00;98.60
39847;DHT22;25517;52.422;10.782;2023-04-12T08:34:45;11.20;99.00
39847;DHT22;25517;52.422;10.782;2023-04-12T08:37:11;11.10;99.40
39847;DHT22;25517;52.422;10.782;2023-04-12T08:39:37;11.10;98.80
39847;DHT22;25517;52.422;10.782;2023-04-12T08:42:03;11.10;98.80
39847;DHT22;25517;52.422;10.782;2023-04-12T08:44:38;11.10;98.90
39847;DHT22;25517;52.422;10.782;2023-04-12T08:47:05;11.10;99.40
39847;DHT22;25517;52.422;10.782;2023-04-12T08:49:32;11.20;98.60
39847;DHT22;25517;52.422;10.782;2023-04-12T08:52:00;11.20;98.80
39847;DHT22;25517;52.422;10.782;2023-04-12T08:54:27;11.30;98.90
39847;DHT22;25517;52.422;10.782;2023-04-12T08:56:55;11.50;97.90
39847;DHT22;25517;52.422;10.782;2023-04-12T08:59:27;12.20;98.10
39847;DHT22;25517;52.422;10.782;2023-04-12T09:01:54;12.70;96.50
39847;DHT22;25517;52.422;10.782;2023-04-12T09:04:20;12.80;95.90
39847;DHT22;25517;52.422;10.782;2023-04-12T09:06:45;12.70;95.60
39847;DHT22;25517;52.422;10.782;2023-04-12T09:09:11;12.70;95.90
39847;DHT22;25517;52.422;10.782;2023-04-12T09:11:36;12.40;96.00
39847;DHT22;25517;52.422;10.782;2023-04-12T09:14:02;12.50;96.40
39847;DHT22;25517;52.422;10.782;2023-04-12T09:16:36;12.20;97.30
39847;DHT22;25517;52.422;10.782;2023-04-12T09:19:01;12.40;96.70
39847;DHT22;25517;52.422;10.782;2023-04-12T09:21:27;12.80;97.00
39847;DHT22;25517;52.422;10.782;2023-04-12T09:24:08;13.00;96.10
39847;DHT22;25517;52.422;10.782;2023-04-12T09:26:34;13.70;95.30
39847;DHT22;25517;52.422;10.782;2023-04-12T09:29:00;13.60;94.80
39847;DHT22;25517;52.422;10.782;2023-04-12T09:31:26;13.70;94.90
39847;DHT22;25517;52.422;10.782;2023-04-12T09:33:52;13.90;94.20
39847;DHT22;25517;52.422;10.782;2023-04-12T09:36:37;14.00;94.50
39847;DHT22;25517;52.422;10.782;2023-04-12T09:39:03;14.10;94.00
39847;DHT22;25517;52.422;10.782;2023-04-12T09:41:29;14.00;94.10
39847;DHT22;25517;52.422;10.782;2023-04-12T09:43:57;13.50;94.80
39847;DHT22;25517;52.422;10.782;2023-04-12T09:46:23;13.80;94.60
39847;DHT22;25517;52.422;10.782;2023-04-12T09:48:51;14.00;94.90
39847;DHT22;25517;52.422;10.782;2023-04-12T09:51:33;13.90;94.40
39847;DHT22;25517;52.422;10.782;2023-04-12T09:54:02;13.90;95.00
39847;DHT22;25517;52.422;10.782;2023-04-12T09:56:33;13.50;94.70
39847;DHT22;25517;52.422;10.782;2023-04-12T09:59:02;12.90;95.60
39847;DHT22;25517;52.422;10.782;2023-04-12T10:01:32;12.70;96.30
39847;DHT22;25517;52.422;10.782;2023-04-12T10:03:59;12.60;96.70
39847;DHT22;25517;52.422;10.782;2023-04-12T10:06:25;12.70;96.60
39847;DHT22;25517;52.422;10.782;2023-04-12T10:08:52;12.80;96.50
39847;DHT22;25517;52.422;10.782;2023-04-12T10:11:18;12.70;96.70
39847;DHT22;25517;52.422;10.782;2023-04-12T10:13:44;12.60;96.60
39847;DHT22;25517;52.422;10.782;2023-04-12T10:16:10;12.40;96.50
39847;DHT22;25517;52.422;10.782;2023-04-12T10:18:38;12.30;96.40
39847;DHT22;25517;52.422;10.782;2023-04-12T10:21:04;12.10;97.20
39847;DHT22;25517;52.422;10.782;2023-04-12T10:23:33;11.70;99.10
39847;DHT22;25517;52.422;10.782;2023-04-12T10:25:59;11.60;99.50
39847;DHT22;25517;52.422;10.782;2023-04-12T10:28:25;11.40;99.90
39847;DHT22;25517;52.422;10.782;2023-04-12T10:30:50;11.30;99.90
39847;DHT22;25517;52.422;10.782;2023-04-12T10:33:25;11.10;99.90
39847;DHT22;25517;52.422;10.782;2023-04-12T10:38:21;10.90;99.90
39847;DHT22;25517;52.422;10.782;2023-04-12T10:41:15;10.80;99.90
39847;DHT22;25517;52.422;10.782;2023-04-12T10:43:45;10.60;99.90
39847;DHT22;25517;52.422;10.782;2023-04-12T10:49:07;10.50;99.90
39847;DHT22;25517;52.422;10.782;2023-04-12T10:51:33;10.40;99.90
39847;DHT22;25517;52.422;10.782;2023-04-12T10:56:44;10.20;99.90
39847;DHT22;25517;52.422;10.782;2023-04-12T10:59:11;10.10;99.90
39847;DHT22;25517;52.422;10.782;2023-04-12T11:01:37;10.00;99.90
39847;DHT22;25517;52.422;10.782;2023-04-12T11:04:17;9.90;99.90
39847;DHT22;25517;52.422;10.782;2023-04-12T11:06:56;9.90;99.90
39847;DHT22;25517;52.422;10.782;2023-04-12T11:09:49;10.00;99.90
39847;DHT22;25517;52.422;10.782;2023-04-12T11:12:15;10.00;99.90
39847;DHT22;25517;52.422;10.782;2023-04-12T11:14:49;10.00;99.90
39847;DHT22;25517;52.422;10.782;2023-04-12T11:19:48;9.90;99.90
39847;DHT22;25517;52.422;10.782;2023-04-12T11:22:15;9.80;99.90
39847;DHT22;25517;52.422;10.782;2023-04-12T11:24:49;9.70;99.90
39847;DHT22;25517;52.422;10.782;2023-04-12T11:27:16;9.70;99.90
39847;DHT22;25517;52.422;10.782;2023-04-12T11:29:43;9.60;99.90
39847;DHT22;25517;52.422;10.782;2023-04-12T11:32:11;9.60;99.90
39847;DHT22;25517;52.422;10.782;2023-04-12T11:34:39;9.50;99.90
39847;DHT22;25517;52.422;10.782;2023-04-12T11:37:06;9.40;99.90
39847;DHT22;25517;52.422;10.782;2023-04-12T11:39:34;9.40;99.90
39847;DHT22;25517;52.422;10.782;2023-04-12T11:41:59;9.40;99.90
39847;DHT22;25517;52.422;10.782;2023-04-12T11:44:28;9.40;99.90
39847;DHT22;25517;52.422;10.782;2023-04-12T11:46:53;9.40;99.90
39847;DHT22;25517;52.422;10.782;2023-04-12T11:49:21;9.30;99.90
39847;DHT22;25517;52.422;10.782;2023-04-12T11:51:47;9.30;99.90
39847;DHT22;25517;52.422;10.782;2023-04-12T11:54:13;9.20;99.90
39847;DHT22;25517;52.422;10.782;2023-04-12T11:56:40;9.20;99.90
39847;DHT22;25517;52.422;10.782;2023-04-12T11:59:07;9.20;99.90
39847;DHT22;25517;52.422;10.782;2023-04-12T12:01:36;9.10;99.90
39847;DHT22;25517;52.422;10.782;2023-04-12T12:04:03;9.10;99.90
39847;DHT22;25517;52.422;10.782;2023-04-12T12:06:29;8.90;99.90
39847;DHT22;25517;52.422;10.782;2023-04-12T12:08:55;8.80;99.90
39847;DHT22;25517;52.422;10.782;2023-04-12T12:11:22;8.80;99.90
39847;DHT22;25517;52.422;10.782;2023-04-12T12:13:53;8.60;99.90
39847;DHT22;25517;52.422;10.782;2023-04-12T12:16:24;8.60;99.90
39847;DHT22;25517;52.422;10.782;2023-04-12T12:18:50;8.50;99.90
39847;DHT22;25517;52.422;10.782;2023-04-12T12:21:17;8.50;99.90
39847;DHT22;25517;52.422;10.782;2023-04-12T12:23:43;8.50;99.90
39847;DHT22;25517;52.422;10.782;2023-04-12T12:26:09;8.50;99.90
39847;DHT22;25517;52.422;10.782;2023-04-12T12:28:43;8.50;99.90
39847;DHT22;25517;52.422;10.782;2023-04-12T12:31:20;8.50;99.90
39847;DHT22;25517;52.422;10.782;2023-04-12T12:33:46;8.50;99.90
39847;DHT22;25517;52.422;10.782;2023-04-12T12:36:12;8.60;99.90
39847;DHT22;25517;52.422;10.782;2023-04-12T12:38:41;8.50;99.90
39847;DHT22;25517;52.422;10.782;2023-04-12T12:41:21;8.50;99.90
39847;DHT22;25517;52.422;10.782;2023-04-12T12:43:47;8.50;99.90
39847;DHT22;25517;52.422;10.782;2023-04-12T12:46:14;8.50;99.90
39847;DHT22;25517;52.422;10.782;2023-04-12T12:48:40;8.50;99.90
39847;DHT22;25517;52.422;10.782;2023-04-12T12:51:10;8.50;99.90
39847;DHT22;25517;52.422;10.782;2023-04-12T12:53:37;8.40;99.90
39847;DHT22;25517;52.422;10.782;2023-04-12T12:56:03;8.50;99.90
39847;DHT22;25517;52.422;10.782;2023-04-12T12:58:29;8.40;99.90
39847;DHT22;25517;52.422;10.782;2023-04-12T13:00:55;8.30;99.90
39847;DHT22;25517;52.422;10.782;2023-04-12T13:03:20;8.40;99.90
39847;DHT22;25517;52.422;10.782;2023-04-12T13:05:46;8.20;99.90
39847;DHT22;25517;52.422;10.782;2023-04-12T13:08:12;8.20;99.90
39847;DHT22;25517;52.422;10.782;2023-04-12T13:10:38;8.30;99.90
39847;DHT22;25517;52.422;10.782;2023-04-12T13:13:03;8.30;99.90
39847;DHT22;25517;52.422;10.782;2023-04-12T13:15:29;8.40;99.90
39847;DHT22;25517;52.422;10.782;2023-04-12T13:17:54;8.50;99.90
39847;DHT22;25517;52.422;10.782;2023-04-12T13:20:21;8.40;99.90
39847;DHT22;25517;52.422;10.782;2023-04-12T13:22:48;8.40;99.90
39847;DHT22;25517;52.422;10.782;2023-04-12T13:25:13;8.50;99.90
39847;DHT22;25517;52.422;10.782;2023-04-12T13:27:39;8.70;99.90
39847;DHT22;25517;52.422;10.782;2023-04-12T13:30:05;8.90;99.90
39847;DHT22;25517;52.422;10.782;2023-04-12T13:32:31;9.00;99.90
39847;DHT22;25517;52.422;10.782;2023-04-12T13:34:56;9.00;99.90
39847;DHT22;25517;52.422;10.782;2023-04-12T13:37:22;9.10;99.90
39847;DHT22;25517;52.422;10.782;2023-04-12T13:39:49;8.90;99.90
39847;DHT22;25517;52.422;10.782;2023-04-12T13:42:15;8.80;99.90
39847;DHT22;25517;52.422;10.782;2023-04-12T13:44:41;8.70;99.90
39847;DHT22;25517;52.422;10.782;2023-04-12T13:47:07;8.70;99.90
39847;DHT22;25517;52.422;10.782;2023-04-12T13:49:33;8.80;99.90
39847;DHT22;25517;52.422;10.782;2023-04-12T13:52:00;8.90;99.90
39847;DHT22;25517;52.422;10.782;2023-04-12T13:54:26;8.90;99.90
39847;DHT22;25517;52.422;10.782;2023-04-12T13:56:51;8.80;99.90
39847;DHT22;25517;52.422;10.782;2023-04-12T13:59:17;8.80;99.90
39847;DHT22;25517;52.422;10.782;2023-04-12T14:01:43;8.90;99.90
39847;DHT22;25517;52.422;10.782;2023-04-12T14:04:08;8.90;99.90
39847;DHT22;25517;52.422;10.782;2023-04-12T14:06:34;9.00;99.90
39847;DHT22;25517;52.422;10.782;2023-04-12T14:09:00;9.00;99.90
39847;DHT22;25517;52.422;10.782;2023-04-12T14:11:26;9.00;99.90
39847;DHT22;25517;52.422;10.782;2023-04-12T14:13:51;8.90;99.90
39847;DHT22;25517;52.422;10.782;2023-04-12T14:16:17;8.80;99.90
39847;DHT22;25517;52.422;10.782;2023-04-12T14:18:43;8.90;99.90
39847;DHT22;25517;52.422;10.782;2023-04-12T14:21:08;9.20;99.90
39847;DHT22;25517;52.422;10.782;2023-04-12T14:23:34;8.90;99.90
39847;DHT22;25517;52.422;10.782;2023-04-12T14:26:00;9.00;99.90
39847;DHT22;25517;52.422;10.782;2023-04-12T14:28:26;8.70;99.90
39847;DHT22;25517;52.422;10.782;2023-04-12T14:30:55;8.80;99.90
39847;DHT22;25517;52.422;10.782;2023-04-12T14:33:22;8.80;99.90
39847;DHT22;25517;52.422;10.782;2023-04-12T14:35:47;8.90;99.90
39847;DHT22;25517;52.422;10.782;2023-04-12T14:38:13;9.00;99.90
39847;DHT22;25517;52.422;10.782;2023-04-12T14:40:38;9.00;99.90
39847;DHT22;25517;52.422;10.782;2023-04-12T14:43:04;8.90;99.90
39847;DHT22;25517;52.422;10.782;2023-04-12T14:45:30;9.00;99.90
39847;DHT22;25517;52.422;10.782;2023-04-12T14:47:55;9.10;99.90
39847;DHT22;25517;52.422;10.782;2023-04-12T14:50:21;9.10;99.90
39847;DHT22;25517;52.422;10.782;2023-04-12T14:52:47;8.90;99.90
39847;DHT22;25517;52.422;10.782;2023-04-12T14:55:13;9.10;99.90
39847;DHT22;25517;52.422;10.782;2023-04-12T14:57:39;9.00;99.90
39847;DHT22;25517;52.422;10.782;2023-04-12T15:00:06;9.00;99.90
39847;DHT22;25517;52.422;10.782;2023-04-12T15:02:40;9.10;99.90
39847;DHT22;25517;52.422;10.782;2023-04-12T15:05:08;9.30;99.90
39847;DHT22;25517;52.422;10.782;2023-04-12T15:07:34;9.60;99.90
39847;DHT22;25517;52.422;10.782;2023-04-12T15:09:59;9.80;99.90
39847;DHT22;25517;52.422;10.782;2023-04-12T15:12:25;9.70;99.90
39847;DHT22;25517;52.422;10.782;2023-04-12T15:14:51;9.60;99.90
39847;DHT22;25517;52.422;10.782;2023-04-12T15:17:21;9.80;99.90
39847;DHT22;25517;52.422;10.782;2023-04-12T15:19:48;10.00;99.90
39847;DHT22;25517;52.422;10.782;2023-04-12T15:22:14;10.10;99.90
39847;DHT22;25517;52.422;10.782;2023-04-12T15:24:40;9.80;99.90
39847;DHT22;25517;52.422;10.782;2023-04-12T15:27:05;9.60;99.90
39847;DHT22;25517;52.422;10.782;2023-04-12T15:29:32;9.70;99.90
39847;DHT22;25517;52.422;10.782;2023-04-12T15:31:58;9.80;99.90
39847;DHT22;25517;52.422;10.782;2023-04-12T15:34:24;9.80;99.90
39847;DHT22;25517;52.422;10.782;2023-04-12T15:36:50;9.70;99.90
39847;DHT22;25517;52.422;10.782;2023-04-12T15:39:17;9.50;99.90
39847;DHT22;25517;52.422;10.782;2023-04-12T15:41:43;9.50;99.90
39847;DHT22;25517;52.422;10.782;2023-04-12T15:44:09;9.50;99.90
39847;DHT22;25517;52.422;10.782;2023-04-12T15:46:38;9.70;99.90